Time;durP1;ratioP1;P1;durP2;ratioP2;P2;SDS_P1;SDS_P2;PMS_P1;PMS_P2;Temp;Humidity;BMP_temperature;BMP_pressure;BME280_temperature;BME280_humidity;BME280_pressure;Samples;Min_cycle;Max_cycle;Signal;HPM_P1;HPM_P2
2021/05/13 00:01:41;;;;;;;;;3.00;1.50;;;;;;;;5050383;28;10934;-85
2021/05/13 00:04:08;;;;;;;;;2.00;0.25;;;;;;;;5062491;28;10255;-85
2021/05/13 00:06:35;;;;;;;;;2.00;2.00;;;;;;;;5078065;28;10766;-85
2021/05/13 00:09:03;;;;;;;;;2.75;2.75;;;;;;;;5063760;28;10158;-85
2021/05/13 00:11:32;;;;;;;;;2.00;2.00;;;;;;;;5046701;28;10074;-84
2021/05/13 00:13:59;;;;;;;;;2.00;2.00;;;;;;;;5045313;28;10034;-83
2021/05/13 00:16:30;;;;;;;;;2.00;2.00;;;;;;;;5046188;28;10585;-84
2021/05/13 00:18:59;;;;;;;;;1.00;1.00;;;;;;;;5063209;28;10070;-85
2021/05/13 00:21:26;;;;;;;;;3.25;2.50;;;;;;;;5057493;28;9906;-83
2021/05/13 00:23:54;;;;;;;;;1.00;1.00;;;;;;;;5068416;28;9972;-83
2021/05/13 00:26:34;;;;;;;;;3.75;2.00;;;;;;;;5063611;28;9958;-84
2021/05/13 00:29:02;;;;;;;;;6.75;1.50;;;;;;;;5062021;28;10202;-87
2021/05/13 00:31:29;;;;;;;;;2.00;2.00;;;;;;;;5045130;28;9890;-85
2021/05/13 00:33:59;;;;;;;;;1.75;1.75;;;;;;;;5043241;28;10607;-84
2021/05/13 00:36:26;;;;;;;;;3.00;3.00;;;;;;;;5060318;28;10562;-83
2021/05/13 00:38:53;;;;;;;;;2.25;2.25;;;;;;;;5059911;28;9952;-85
2021/05/13 00:41:20;;;;;;;;;2.00;2.00;;;;;;;;5064065;28;9963;-85
2021/05/13 00:43:47;;;;;;;;;1.25;1.25;;;;;;;;5058078;28;10574;-84
2021/05/13 00:46:14;;;;;;;;;2.00;2.00;;;;;;;;5054084;28;9778;-87
2021/05/13 00:48:44;;;;;;;;;2.00;2.00;;;;;;;;5074806;28;10004;-83
2021/05/13 00:51:12;;;;;;;;;2.00;2.00;;;;;;;;5062602;28;9882;-85
2021/05/13 00:53:41;;;;;;;;;2.00;2.00;;;;;;;;5066211;28;9774;-84
2021/05/13 00:56:08;;;;;;;;;1.00;1.00;;;;;;;;5065213;28;9916;-83
2021/05/13 00:58:37;;;;;;;;;2.25;2.25;;;;;;;;5065562;28;9816;-83
2021/05/13 01:01:07;;;;;;;;;2.75;2.75;;;;;;;;5061860;28;9799;-84
2021/05/13 01:03:35;;;;;;;;;1.00;1.00;;;;;;;;5061565;28;9729;-84
2021/05/13 01:06:04;;;;;;;;;1.00;1.00;;;;;;;;5057784;28;9777;-84
2021/05/13 01:08:32;;;;;;;;;3.25;1.75;;;;;;;;5062222;28;9806;-84
2021/05/13 01:10:59;;;;;;;;;2.50;2.00;;;;;;;;5069108;28;9631;-85
2021/05/13 01:13:27;;;;;;;;;3.50;2.75;;;;;;;;5044262;28;9702;-85
2021/05/13 01:16:07;;;;;;;;;2.00;2.00;;;;;;;;5065260;28;9876;-84
2021/05/13 01:18:36;;;;;;;;;2.50;2.50;;;;;;;;5060261;28;9701;-84
2021/05/13 01:21:03;;;;;;;;;4.00;2.25;;;;;;;;5065918;28;10398;-84
2021/05/13 01:23:31;;;;;;;;;3.25;3.00;;;;;;;;5058759;28;9734;-84
2021/05/13 01:25:58;;;;;;;;;2.00;2.00;;;;;;;;5058383;28;9830;-85
2021/05/13 01:28:27;;;;;;;;;2.00;2.00;;;;;;;;5053712;28;10743;-84
2021/05/13 01:30:55;;;;;;;;;2.00;2.00;;;;;;;;5068215;28;9641;-87
2021/05/13 01:33:23;;;;;;;;;1.00;1.00;;;;;;;;5066274;28;10492;-83
2021/05/13 01:35:51;;;;;;;;;2.00;2.00;;;;;;;;5062353;28;9711;-84
2021/05/13 01:38:20;;;;;;;;;3.25;1.75;;;;;;;;5040526;28;9696;-83
2021/05/13 01:40:53;;;;;;;;;1.00;1.00;;;;;;;;5056692;28;9766;-87
2021/05/13 01:43:20;;;;;;;;;2.00;2.00;;;;;;;;5043635;28;9553;-86
2021/05/13 01:45:47;;;;;;;;;2.75;2.75;;;;;;;;5060226;28;10495;-83
2021/05/13 01:48:14;;;;;;;;;2.50;2.50;;;;;;;;5059026;28;9731;-86
2021/05/13 01:50:40;;;;;;;;;2.00;2.00;;;;;;;;5060548;28;12071;-85
2021/05/13 01:53:08;;;;;;;;;4.00;2.00;;;;;;;;5049602;28;9995;-84
2021/05/13 01:55:36;;;;;;;;;2.75;2.75;;;;;;;;5063572;28;9889;-84
2021/05/13 01:58:05;;;;;;;;;1.00;1.00;;;;;;;;5056768;28;9740;-85
2021/05/13 02:00:34;;;;;;;;;2.00;2.00;;;;;;;;5063826;28;9682;-86
2021/05/13 02:03:03;;;;;;;;;2.00;2.00;;;;;;;;5046176;28;10433;-84
2021/05/13 02:05:30;;;;;;;;;3.75;3.75;;;;;;;;5061107;28;9667;-84
2021/05/13 02:07:57;;;;;;;;;2.00;2.00;;;;;;;;5060540;28;9664;-86
2021/05/13 02:10:24;;;;;;;;;3.00;3.00;;;;;;;;5050128;28;9618;-84
2021/05/13 02:12:51;;;;;;;;;2.00;2.00;;;;;;;;5060032;28;10457;-86
2021/05/13 02:15:20;;;;;;;;;3.25;2.00;;;;;;;;5058151;28;9634;-85
2021/05/13 02:17:47;;;;;;;;;3.00;1.50;;;;;;;;5077605;28;9498;-84
2021/05/13 02:20:15;;;;;;;;;6.25;2.50;;;;;;;;5058482;28;9533;-85
2021/05/13 02:22:43;;;;;;;;;1.00;1.00;;;;;;;;5056725;28;9650;-85
2021/05/13 02:25:11;;;;;;;;;2.25;2.25;;;;;;;;5058872;28;10213;-85
2021/05/13 02:27:38;;;;;;;;;2.00;2.00;;;;;;;;5045746;28;9485;-85
2021/05/13 02:30:08;;;;;;;;;3.67;3.00;;;;;;;;5060363;28;9661;-86
2021/05/13 02:32:36;;;;;;;;;2.50;2.50;;;;;;;;5053717;28;9481;-85
2021/05/13 02:35:03;;;;;;;;;2.25;2.25;;;;;;;;5046596;28;9589;-87
2021/05/13 02:37:30;;;;;;;;;4.00;2.00;;;;;;;;5077431;28;9598;-88
2021/05/13 02:39:57;;;;;;;;;2.00;2.00;;;;;;;;5060830;28;9642;-85
2021/05/13 02:42:24;;;;;;;;;3.00;3.00;;;;;;;;5054084;28;9604;-85
2021/05/13 02:44:51;;;;;;;;;3.75;2.00;;;;;;;;5058906;28;9658;-88
2021/05/13 02:47:18;;;;;;;;;2.00;2.00;;;;;;;;5059036;28;9650;-87
2021/05/13 02:49:46;;;;;;;;;1.00;1.00;;;;;;;;5060851;28;9784;-85
2021/05/13 02:52:13;;;;;;;;;3.25;2.00;;;;;;;;5049711;28;9656;-85
2021/05/13 02:54:41;;;;;;;;;2.00;2.00;;;;;;;;5042378;28;9640;-85
2021/05/13 02:57:08;;;;;;;;;1.75;1.75;;;;;;;;5062370;28;9725;-86
2021/05/13 02:59:43;;;;;;;;;3.50;2.00;;;;;;;;5055262;28;9956;-86
2021/05/13 03:02:10;;;;;;;;;2.00;2.00;;;;;;;;5059741;28;9734;-86
2021/05/13 03:04:37;;;;;;;;;2.50;2.50;;;;;;;;5060176;28;9787;-85
2021/05/13 03:07:05;;;;;;;;;2.00;2.00;;;;;;;;5031741;28;9702;-90
2021/05/13 03:09:34;;;;;;;;;2.50;2.50;;;;;;;;5069117;28;9765;-84
2021/05/13 03:12:01;;;;;;;;;2.50;2.50;;;;;;;;5041806;28;9654;-88
2021/05/13 03:14:28;;;;;;;;;2.75;1.00;;;;;;;;5042871;28;9776;-83
2021/05/13 03:16:55;;;;;;;;;2.00;2.00;;;;;;;;5057778;28;9721;-84
2021/05/13 03:19:27;;;;;;;;;2.00;2.00;;;;;;;;5061709;28;9763;-85
2021/05/13 03:21:57;;;;;;;;;1.00;1.00;;;;;;;;5053223;28;9872;-85
2021/05/13 03:24:30;;;;;;;;;3.75;3.00;;;;;;;;5055195;28;9634;-85
2021/05/13 03:27:03;;;;;;;;;2.00;2.00;;;;;;;;5057061;28;9789;-85
2021/05/13 03:29:30;;;;;;;;;2.00;2.00;;;;;;;;5043857;28;9905;-84
2021/05/13 03:31:57;;;;;;;;;3.50;3.00;;;;;;;;5064860;28;9738;-86
2021/05/13 03:34:23;;;;;;;;;2.25;2.00;;;;;;;;5053766;28;10066;-84
2021/05/13 03:36:50;;;;;;;;;3.00;3.00;;;;;;;;5061212;28;9802;-84
2021/05/13 03:39:17;;;;;;;;;3.00;3.00;;;;;;;;5061099;28;9936;-84
2021/05/13 03:41:45;;;;;;;;;4.75;3.00;;;;;;;;5061430;28;9972;-85
2021/05/13 03:44:12;;;;;;;;;2.00;2.00;;;;;;;;5059537;28;9867;-85
2021/05/13 03:46:39;;;;;;;;;3.00;3.00;;;;;;;;5060074;28;9882;-85
2021/05/13 03:49:06;;;;;;;;;2.25;2.00;;;;;;;;5061186;28;9882;-84
2021/05/13 03:51:33;;;;;;;;;5.25;3.50;;;;;;;;5054035;28;10043;-85
2021/05/13 03:54:00;;;;;;;;;2.25;2.25;;;;;;;;5061274;28;10072;-83
2021/05/13 03:56:27;;;;;;;;;3.50;3.50;;;;;;;;5053368;28;10016;-86
2021/05/13 03:58:57;;;;;;;;;2.00;2.00;;;;;;;;5041139;28;10120;-85
2021/05/13 04:01:43;;;;;;;;;6.75;4.00;;;;;;;;5053169;28;9959;-85
2021/05/13 04:04:10;;;;;;;;;3.00;3.00;;;;;;;;5055172;28;10089;-84
2021/05/13 04:06:37;;;;;;;;;4.50;3.00;;;;;;;;5061986;28;10163;-84
2021/05/13 04:09:08;;;;;;;;;3.00;3.00;;;;;;;;5062069;28;10182;-83
2021/05/13 04:11:35;;;;;;;;;3.00;3.00;;;;;;;;5060402;28;10316;-84
2021/05/13 04:14:04;;;;;;;;;4.00;3.25;;;;;;;;5059747;28;10686;-84
2021/05/13 04:16:33;;;;;;;;;1.00;1.00;;;;;;;;5045029;28;11427;-84
2021/05/13 04:19:00;;;;;;;;;1.00;1.00;;;;;;;;5056710;28;10248;-85
2021/05/13 04:21:28;;;;;;;;;4.00;2.50;;;;;;;;5063606;28;10155;-84
2021/05/13 04:23:55;;;;;;;;;2.25;1.00;;;;;;;;5061536;28;10181;-83
2021/05/13 04:26:22;;;;;;;;;1.00;1.00;;;;;;;;5037186;28;10173;-84
2021/05/13 04:28:50;;;;;;;;;1.00;1.00;;;;;;;;5060065;28;10276;-85
2021/05/13 04:31:19;;;;;;;;;1.00;1.00;;;;;;;;5046682;28;10117;-84
2021/05/13 04:33:46;;;;;;;;;1.00;1.00;;;;;;;;5059693;28;10244;-83
2021/05/13 04:36:12;;;;;;;;;1.00;1.00;;;;;;;;5061767;28;10340;-84
2021/05/13 04:38:39;;;;;;;;;1.00;1.00;;;;;;;;5062761;28;10173;-84
2021/05/13 04:41:06;;;;;;;;;1.00;1.00;;;;;;;;5054389;28;10174;-84
2021/05/13 04:43:34;;;;;;;;;0.25;0.25;;;;;;;;5045917;28;10254;-84
2021/05/13 04:46:01;;;;;;;;;0.00;0.00;;;;;;;;5065848;28;10177;-84
2021/05/13 04:48:41;;;;;;;;;1.75;0.50;;;;;;;;5063384;28;10318;-84
2021/05/13 04:51:08;;;;;;;;;3.00;2.00;;;;;;;;5059472;28;10393;-83
2021/05/13 04:53:35;;;;;;;;;0.00;0.00;;;;;;;;5055193;28;10336;-84
2021/05/13 04:56:02;;;;;;;;;0.50;0.50;;;;;;;;5040143;28;10371;-84
2021/05/13 04:58:28;;;;;;;;;1.00;1.00;;;;;;;;5064041;28;10617;-86
2021/05/13 05:00:55;;;;;;;;;1.00;1.00;;;;;;;;5062411;28;10486;-83
2021/05/13 05:03:22;;;;;;;;;1.75;1.00;;;;;;;;5051719;28;10611;-84
2021/05/13 05:05:51;;;;;;;;;1.75;1.75;;;;;;;;5064269;28;11064;-83
2021/05/13 05:08:18;;;;;;;;;2.25;2.25;;;;;;;;5062122;28;10535;-83
2021/05/13 05:10:46;;;;;;;;;3.00;3.00;;;;;;;;5070229;28;10654;-84
2021/05/13 05:13:13;;;;;;;;;4.00;4.00;;;;;;;;5059692;28;10689;-84
2021/05/13 05:15:39;;;;;;;;;8.75;8.75;;;;;;;;5068235;28;10721;-85
2021/05/13 05:18:06;;;;;;;;;8.25;8.25;;;;;;;;5045070;28;11132;-85
2021/05/13 05:20:33;;;;;;;;;7.00;7.00;;;;;;;;5042693;28;11121;-85
2021/05/13 05:23:01;;;;;;;;;3.00;3.00;;;;;;;;5046874;28;11111;-87
2021/05/13 05:25:28;;;;;;;;;1.75;1.75;;;;;;;;5056763;28;10987;-84
2021/05/13 05:27:55;;;;;;;;;1.75;1.75;;;;;;;;5039411;28;11114;-86
2021/05/13 05:30:22;;;;;;;;;1.00;1.00;;;;;;;;5057734;28;10932;-85
2021/05/13 05:32:50;;;;;;;;;0.75;0.75;;;;;;;;5060239;28;10881;-84
2021/05/13 05:35:17;;;;;;;;;0.00;0.00;;;;;;;;5064656;28;11125;-85
2021/05/13 05:37:43;;;;;;;;;0.00;0.00;;;;;;;;5060881;28;11050;-84
2021/05/13 05:40:16;;;;;;;;;0.75;0.75;;;;;;;;5057903;28;11521;-87
2021/05/13 05:42:43;;;;;;;;;2.00;2.00;;;;;;;;5068527;28;10853;-85
2021/05/13 05:45:11;;;;;;;;;6.75;6.75;;;;;;;;5061815;28;11104;-89
2021/05/13 05:47:38;;;;;;;;;10.25;10.25;;;;;;;;5063503;28;11101;-91
2021/05/13 05:50:07;;;;;;;;;16.25;16.25;;;;;;;;5040638;28;12030;-74
2021/05/13 05:52:34;;;;;;;;;16.00;16.00;;;;;;;;5066198;28;11135;-75
2021/05/13 05:55:01;;;;;;;;;13.00;13.00;;;;;;;;5062518;28;11123;-76
2021/05/13 05:57:29;;;;;;;;;15.00;13.50;;;;;;;;5059734;28;11217;-72
2021/05/13 05:59:57;;;;;;;;;13.75;13.75;;;;;;;;5062800;28;11143;-73
2021/05/13 06:02:24;;;;;;;;;15.50;15.50;;;;;;;;5055655;28;12321;-73
2021/05/13 06:04:52;;;;;;;;;12.25;12.25;;;;;;;;5059409;28;11286;-72
2021/05/13 06:07:19;;;;;;;;;11.00;11.00;;;;;;;;5054585;28;11026;-73
2021/05/13 06:09:46;;;;;;;;;11.75;11.75;;;;;;;;5061532;28;11859;-75
2021/05/13 06:12:14;;;;;;;;;11.75;11.75;;;;;;;;5054969;28;10867;-75
2021/05/13 06:14:42;;;;;;;;;16.50;14.50;;;;;;;;5042805;28;11787;-74
2021/05/13 06:17:10;;;;;;;;;13.50;13.50;;;;;;;;5055995;28;11175;-75
2021/05/13 06:19:37;;;;;;;;;12.00;12.00;;;;;;;;5042205;28;11033;-76
2021/05/13 06:22:04;;;;;;;;;9.50;9.50;;;;;;;;5076712;28;10966;-73
2021/05/13 06:24:31;;;;;;;;;8.50;8.50;;;;;;;;5061666;28;10881;-75
2021/05/13 06:26:59;;;;;;;;;7.75;7.75;;;;;;;;5062478;28;10875;-76
2021/05/13 06:29:28;;;;;;;;;4.75;4.75;;;;;;;;5061996;28;10766;-72
2021/05/13 06:31:56;;;;;;;;;4.50;4.50;;;;;;;;5055939;28;10620;-77
2021/05/13 06:34:23;;;;;;;;;3.00;3.00;;;;;;;;5053333;28;10739;-81
2021/05/13 06:36:50;;;;;;;;;0.00;0.00;;;;;;;;5055139;28;10653;-75
2021/05/13 06:39:17;;;;;;;;;0.00;0.00;;;;;;;;5042816;28;10504;-73
2021/05/13 06:41:44;;;;;;;;;0.00;0.00;;;;;;;;5045851;28;10314;-75
2021/05/13 06:44:11;;;;;;;;;0.00;0.00;;;;;;;;5042331;28;10341;-74
2021/05/13 06:46:38;;;;;;;;;0.00;0.00;;;;;;;;5054372;28;10454;-75
2021/05/13 06:49:07;;;;;;;;;0.00;0.00;;;;;;;;5043990;28;10460;-75
2021/05/13 06:51:34;;;;;;;;;0.00;0.00;;;;;;;;5048580;28;11210;-75
2021/05/13 06:54:01;;;;;;;;;1.00;0.00;;;;;;;;5036820;28;10333;-74
2021/05/13 06:56:28;;;;;;;;;0.00;0.00;;;;;;;;5051369;28;10273;-73
2021/05/13 06:58:55;;;;;;;;;0.00;0.00;;;;;;;;5056241;28;10435;-75
2021/05/13 07:01:22;;;;;;;;;0.00;0.00;;;;;;;;5036263;28;10196;-76
2021/05/13 07:03:49;;;;;;;;;0.00;0.00;;;;;;;;5054086;28;11001;-75
2021/05/13 07:06:17;;;;;;;;;0.00;0.00;;;;;;;;5052158;28;10259;-75
2021/05/13 07:08:44;;;;;;;;;0.00;0.00;;;;;;;;5055261;28;10162;-77
2021/05/13 07:11:11;;;;;;;;;0.00;0.00;;;;;;;;5060650;28;10817;-77
2021/05/13 07:13:38;;;;;;;;;0.00;0.00;;;;;;;;5053684;28;10119;-77
2021/05/13 07:16:06;;;;;;;;;0.00;0.00;;;;;;;;5059768;28;10221;-76
2021/05/13 07:18:33;;;;;;;;;0.00;0.00;;;;;;;;5061151;28;10247;-75
2021/05/13 07:21:00;;;;;;;;;0.00;0.00;;;;;;;;5059941;28;10191;-79
2021/05/13 07:23:28;;;;;;;;;0.00;0.00;;;;;;;;5059752;28;9938;-78
2021/05/13 07:25:57;;;;;;;;;0.00;0.00;;;;;;;;5053371;28;9930;-80
2021/05/13 07:28:24;;;;;;;;;0.75;0.00;;;;;;;;5052749;28;10111;-80
2021/05/13 07:30:52;;;;;;;;;0.00;0.00;;;;;;;;5059852;28;9886;-77
2021/05/13 07:33:19;;;;;;;;;0.00;0.00;;;;;;;;5060228;28;9937;-79
2021/05/13 07:35:46;;;;;;;;;1.00;1.00;;;;;;;;5061418;28;9796;-79
2021/05/13 07:38:15;;;;;;;;;0.00;0.00;;;;;;;;5062419;28;10203;-77
2021/05/13 07:40:44;;;;;;;;;0.00;0.00;;;;;;;;5063689;28;10059;-77
2021/05/13 07:43:11;;;;;;;;;0.00;0.00;;;;;;;;5042196;28;11059;-78
2021/05/13 07:45:43;;;;;;;;;0.25;0.25;;;;;;;;5066351;28;10200;-77
2021/05/13 07:48:10;;;;;;;;;0.50;0.50;;;;;;;;5077234;28;10112;-78
2021/05/13 07:50:38;;;;;;;;;0.00;0.00;;;;;;;;5062751;28;10086;-78
2021/05/13 07:53:05;;;;;;;;;1.50;1.50;;;;;;;;5064005;28;10017;-77
2021/05/13 07:55:32;;;;;;;;;0.00;0.00;;;;;;;;5063700;28;10076;-76
2021/05/13 07:58:01;;;;;;;;;0.00;0.00;;;;;;;;5066113;28;9996;-77
2021/05/13 08:00:28;;;;;;;;;1.00;1.00;;;;;;;;5045782;28;9717;-77
2021/05/13 08:02:55;;;;;;;;;1.50;0.00;;;;;;;;5046175;28;9656;-78
2021/05/13 08:05:22;;;;;;;;;0.00;0.00;;;;;;;;5061301;28;9567;-78
2021/05/13 08:07:49;;;;;;;;;0.00;0.00;;;;;;;;5062466;28;9652;-79
2021/05/13 08:10:16;;;;;;;;;0.00;0.00;;;;;;;;5064429;28;9520;-78
2021/05/13 08:12:43;;;;;;;;;0.00;0.00;;;;;;;;5062642;28;9529;-80
2021/05/13 08:15:13;;;;;;;;;0.00;0.00;;;;;;;;5059604;28;9396;-76
2021/05/13 08:17:40;;;;;;;;;0.00;0.00;;;;;;;;5058016;28;9361;-74
2021/05/13 08:20:09;;;;;;;;;0.00;0.00;;;;;;;;5055966;28;9333;-77
2021/05/13 08:22:36;;;;;;;;;0.00;0.00;;;;;;;;5039929;28;9330;-75
2021/05/13 08:25:04;;;;;;;;;0.00;0.00;;;;;;;;5060252;28;10271;-77
2021/05/13 08:27:31;;;;;;;;;0.00;0.00;;;;;;;;5059729;28;9231;-76
2021/05/13 08:29:58;;;;;;;;;0.00;0.00;;;;;;;;5062337;28;9198;-79
2021/05/13 08:32:27;;;;;;;;;0.00;0.00;;;;;;;;5062134;28;9208;-78
2021/05/13 08:34:54;;;;;;;;;0.00;0.00;;;;;;;;5055500;28;9331;-75
2021/05/13 08:37:21;;;;;;;;;4.00;2.00;;;;;;;;5063393;28;9097;-76
2021/05/13 08:39:48;;;;;;;;;0.33;0.33;;;;;;;;5059530;28;9098;-77
2021/05/13 08:42:16;;;;;;;;;0.00;0.00;;;;;;;;5059330;28;8948;-75
2021/05/13 08:44:44;;;;;;;;;0.00;0.00;;;;;;;;5060009;28;8868;-76
2021/05/13 08:47:12;;;;;;;;;0.00;0.00;;;;;;;;5060057;28;8879;-75
2021/05/13 08:49:42;;;;;;;;;0.00;0.00;;;;;;;;5059916;28;8862;-76
2021/05/13 08:52:09;;;;;;;;;0.00;0.00;;;;;;;;5058728;28;8870;-78
2021/05/13 08:54:36;;;;;;;;;0.00;0.00;;;;;;;;5059909;28;8987;-78
2021/05/13 08:57:04;;;;;;;;;0.00;0.00;;;;;;;;5059515;28;8892;-76
2021/05/13 08:59:31;;;;;;;;;0.00;0.00;;;;;;;;5061513;28;8856;-75
2021/05/13 09:02:00;;;;;;;;;0.00;0.00;;;;;;;;5056873;28;8836;-73
2021/05/13 09:04:39;;;;;;;;;0.00;0.00;;;;;;;;5060988;28;8875;-73
2021/05/13 09:07:13;;;;;;;;;0.00;0.00;;;;;;;;5055899;28;8870;-72
2021/05/13 09:09:41;;;;;;;;;0.00;0.00;;;;;;;;5057018;28;8942;-72
2021/05/13 09:12:10;;;;;;;;;0.25;0.00;;;;;;;;5057117;28;8880;-73
2021/05/13 09:14:37;;;;;;;;;0.00;0.00;;;;;;;;5059086;28;8887;-73
2021/05/13 09:17:04;;;;;;;;;0.00;0.00;;;;;;;;5061272;28;8856;-75
2021/05/13 09:19:32;;;;;;;;;1.00;1.00;;;;;;;;5052590;28;8870;-73
2021/05/13 09:22:03;;;;;;;;;0.00;0.00;;;;;;;;5059966;28;8884;-74
2021/05/13 09:24:50;;;;;;;;;1.00;1.00;;;;;;;;5061002;28;8851;-74
2021/05/13 09:27:19;;;;;;;;;0.00;0.00;;;;;;;;5058954;28;8874;-74
2021/05/13 09:30:00;;;;;;;;;0.00;0.00;;;;;;;;5058969;28;9785;-76
2021/05/13 09:32:27;;;;;;;;;0.00;0.00;;;;;;;;5055194;28;8823;-74
2021/05/13 09:34:54;;;;;;;;;1.50;0.00;;;;;;;;5054397;28;8976;-74
2021/05/13 09:37:24;;;;;;;;;0.00;0.00;;;;;;;;5049048;28;8844;-73
2021/05/13 09:39:51;;;;;;;;;0.00;0.00;;;;;;;;5057230;28;8880;-73
2021/05/13 09:42:19;;;;;;;;;0.00;0.00;;;;;;;;5042019;28;8868;-72
2021/05/13 09:44:49;;;;;;;;;0.00;0.00;;;;;;;;5057872;28;8852;-71
2021/05/13 09:47:19;;;;;;;;;0.00;0.00;;;;;;;;5055588;28;8853;-72
2021/05/13 09:50:05;;;;;;;;;0.00;0.00;;;;;;;;5057363;28;8898;-72
2021/05/13 09:52:45;;;;;;;;;0.00;0.00;;;;;;;;5040840;28;8868;-72
2021/05/13 09:55:26;;;;;;;;;0.00;0.00;;;;;;;;5057756;28;8846;-71
2021/05/13 09:57:59;;;;;;;;;0.00;0.00;;;;;;;;5064530;28;8872;-73
2021/05/13 10:00:37;;;;;;;;;0.00;0.00;;;;;;;;5043779;28;8823;-74
2021/05/13 10:03:08;;;;;;;;;0.00;0.00;;;;;;;;5048524;28;8886;-72
2021/05/13 10:05:35;;;;;;;;;1.25;0.00;;;;;;;;5054610;28;8949;-75
2021/05/13 10:08:03;;;;;;;;;0.00;0.00;;;;;;;;5056718;28;8999;-73
2021/05/13 10:10:30;;;;;;;;;0.00;0.00;;;;;;;;5057978;28;8865;-72
2021/05/13 10:12:58;;;;;;;;;0.00;0.00;;;;;;;;5058065;28;8886;-73
2021/05/13 10:15:26;;;;;;;;;0.00;0.00;;;;;;;;5055891;28;8932;-74
2021/05/13 10:17:57;;;;;;;;;0.00;0.00;;;;;;;;5060733;28;8885;-74
2021/05/13 10:20:27;;;;;;;;;0.00;0.00;;;;;;;;5050857;28;8876;-72
2021/05/13 10:22:55;;;;;;;;;0.00;0.00;;;;;;;;5043392;28;8878;-72
2021/05/13 10:25:25;;;;;;;;;0.00;0.00;;;;;;;;5056059;28;8959;-71
2021/05/13 10:27:54;;;;;;;;;0.00;0.00;;;;;;;;5060051;28;8880;-73
2021/05/13 10:30:26;;;;;;;;;0.00;0.00;;;;;;;;5031403;28;9044;-72
2021/05/13 10:33:23;;;;;;;;;0.00;0.00;;;;;;;;5051570;28;8962;-71
2021/05/13 10:36:05;;;;;;;;;0.00;0.00;;;;;;;;5018545;28;8864;-72
2021/05/13 10:38:48;;;;;;;;;0.00;0.00;;;;;;;;5042700;28;8858;-73
2021/05/13 10:41:39;;;;;;;;;0.00;0.00;;;;;;;;5046228;28;8888;-72
2021/05/13 10:44:35;;;;;;;;;0.00;0.00;;;;;;;;5059447;28;8876;-73
2021/05/13 10:47:03;;;;;;;;;0.00;0.00;;;;;;;;5011865;28;9574;-73
2021/05/13 10:49:30;;;;;;;;;0.00;0.00;;;;;;;;5055786;28;8879;-74
2021/05/13 10:51:58;;;;;;;;;0.00;0.00;;;;;;;;5039548;28;8891;-74
2021/05/13 10:54:45;;;;;;;;;0.00;0.00;;;;;;;;5058773;28;8864;-73
2021/05/13 10:57:17;;;;;;;;;0.00;0.00;;;;;;;;5057293;28;8860;-73
2021/05/13 11:00:23;;;;;;;;;1.00;0.00;;;;;;;;5058602;28;8992;-72
2021/05/13 11:02:51;;;;;;;;;0.00;0.00;;;;;;;;5046430;28;8832;-73
2021/05/13 11:05:51;;;;;;;;;0.00;0.00;;;;;;;;5059749;28;8872;-73
2021/05/13 11:08:44;;;;;;;;;0.00;0.00;;;;;;;;5004947;28;9785;-74
2021/05/13 11:11:11;;;;;;;;;0.00;0.00;;;;;;;;5007437;28;8876;-72
2021/05/13 11:13:44;;;;;;;;;0.00;0.00;;;;;;;;5040294;28;8864;-74
2021/05/13 11:16:34;;;;;;;;;0.00;0.00;;;;;;;;5043260;28;9026;-72
2021/05/13 11:19:25;;;;;;;;;0.00;0.00;;;;;;;;5057438;28;8927;-73
2021/05/13 11:22:04;;;;;;;;;0.50;0.00;;;;;;;;5061193;28;8860;-73
2021/05/13 11:24:38;;;;;;;;;0.00;0.00;;;;;;;;5058186;28;8890;-72
2021/05/13 11:27:07;;;;;;;;;0.00;0.00;;;;;;;;5059734;28;8886;-72
2021/05/13 11:29:50;;;;;;;;;0.75;0.75;;;;;;;;5057487;28;8849;-72
2021/05/13 11:32:20;;;;;;;;;0.00;0.00;;;;;;;;5057995;28;8812;-71
2021/05/13 11:34:48;;;;;;;;;0.00;0.00;;;;;;;;5039267;28;8895;-72
2021/05/13 11:37:38;;;;;;;;;1.00;0.00;;;;;;;;5043290;28;8860;-73
2021/05/13 11:40:19;;;;;;;;;0.00;0.00;;;;;;;;5061581;28;8979;-72
2021/05/13 11:42:46;;;;;;;;;0.00;0.00;;;;;;;;5056213;28;9798;-72
2021/05/13 11:45:18;;;;;;;;;1.25;1.25;;;;;;;;5059812;28;8915;-72
2021/05/13 11:47:45;;;;;;;;;0.50;0.00;;;;;;;;5058268;28;8879;-72
2021/05/13 11:50:28;;;;;;;;;1.75;1.75;;;;;;;;5053092;28;8894;-72
2021/05/13 11:53:08;;;;;;;;;1.50;1.50;;;;;;;;5060192;28;8872;-70
2021/05/13 11:55:35;;;;;;;;;2.00;2.00;;;;;;;;5051794;28;8862;-71
2021/05/13 11:58:02;;;;;;;;;1.75;1.75;;;;;;;;5058959;28;8879;-72
2021/05/13 12:00:30;;;;;;;;;3.00;1.75;;;;;;;;5051658;28;8793;-72
2021/05/13 12:03:24;;;;;;;;;1.00;1.00;;;;;;;;5056193;28;8886;-72
2021/05/13 12:05:53;;;;;;;;;0.00;0.00;;;;;;;;5036623;28;8903;-71
2021/05/13 12:08:21;;;;;;;;;0.25;0.25;;;;;;;;5054001;28;8879;-71
2021/05/13 12:10:48;;;;;;;;;0.00;0.00;;;;;;;;5058288;28;9654;-72
2021/05/13 12:13:15;;;;;;;;;1.00;1.00;;;;;;;;5046064;28;8870;-71
2021/05/13 12:15:44;;;;;;;;;1.00;1.00;;;;;;;;5062552;28;8914;-73
2021/05/13 12:18:11;;;;;;;;;1.00;1.00;;;;;;;;5054559;28;9715;-71
2021/05/13 12:20:39;;;;;;;;;1.00;1.00;;;;;;;;5063484;28;8880;-71
2021/05/13 12:23:06;;;;;;;;;1.00;1.00;;;;;;;;5057338;28;8957;-71
2021/05/13 12:25:35;;;;;;;;;1.50;1.50;;;;;;;;5056715;28;8929;-72
2021/05/13 12:28:03;;;;;;;;;0.50;0.50;;;;;;;;5062005;28;8929;-73
2021/05/13 12:30:30;;;;;;;;;2.00;0.25;;;;;;;;5054540;28;8819;-71
2021/05/13 12:32:58;;;;;;;;;1.75;1.00;;;;;;;;5070594;28;8989;-73
2021/05/13 12:35:32;;;;;;;;;0.00;0.00;;;;;;;;5052893;28;8854;-72
2021/05/13 12:38:15;;;;;;;;;1.00;1.00;;;;;;;;5051920;28;8874;-73
2021/05/13 12:40:43;;;;;;;;;1.00;1.00;;;;;;;;5060459;28;9644;-72
2021/05/13 12:43:14;;;;;;;;;2.75;1.00;;;;;;;;5053112;28;8878;-74
2021/05/13 12:45:46;;;;;;;;;0.00;0.00;;;;;;;;5052751;28;8897;-71
2021/05/13 12:48:21;;;;;;;;;1.50;1.00;;;;;;;;5056827;28;8872;-73
2021/05/13 12:50:56;;;;;;;;;0.00;0.00;;;;;;;;5056659;28;8925;-73
2021/05/13 12:53:24;;;;;;;;;0.20;0.20;;;;;;;;5058223;28;8845;-72
2021/05/13 12:55:52;;;;;;;;;11.00;11.00;;;;;;;;5037481;28;8964;-73
2021/05/13 12:58:24;;;;;;;;;19.75;19.75;;;;;;;;5069449;28;8830;-73
2021/05/13 13:00:58;;;;;;;;;22.00;22.00;;;;;;;;5036162;28;8835;-74
2021/05/13 13:03:34;;;;;;;;;19.75;18.25;;;;;;;;5060928;28;8906;-74
2021/05/13 13:06:08;;;;;;;;;14.00;14.00;;;;;;;;5055718;28;9612;-75
2021/05/13 13:08:40;;;;;;;;;25.75;25.75;;;;;;;;5046953;28;8894;-74
2021/05/13 13:11:07;;;;;;;;;21.00;21.00;;;;;;;;5062303;28;8864;-75
2021/05/13 13:13:42;;;;;;;;;2.50;2.50;;;;;;;;5053317;28;8887;-72
2021/05/13 13:16:23;;;;;;;;;0.00;0.00;;;;;;;;5061596;28;8871;-72
2021/05/13 13:19:01;;;;;;;;;0.00;0.00;;;;;;;;5051824;28;8889;-72
2021/05/13 13:21:29;;;;;;;;;0.75;0.75;;;;;;;;5046126;28;8913;-72
2021/05/13 13:23:56;;;;;;;;;0.00;0.00;;;;;;;;5041635;28;9641;-73
2021/05/13 13:26:24;;;;;;;;;0.60;0.00;;;;;;;;5056513;28;8866;-71
2021/05/13 13:28:51;;;;;;;;;1.00;1.00;;;;;;;;5060687;28;8907;-72
2021/05/13 13:31:20;;;;;;;;;0.00;0.00;;;;;;;;5059088;28;8819;-73
2021/05/13 13:33:53;;;;;;;;;0.80;0.80;;;;;;;;5061766;28;8872;-72
2021/05/13 13:36:21;;;;;;;;;0.00;0.00;;;;;;;;5057143;28;8878;-74
2021/05/13 13:38:48;;;;;;;;;1.00;1.00;;;;;;;;5041704;28;8872;-71
2021/05/13 13:41:15;;;;;;;;;0.00;0.00;;;;;;;;5058610;28;8864;-72
2021/05/13 13:43:44;;;;;;;;;0.00;0.00;;;;;;;;5057348;28;8890;-72
2021/05/13 13:46:11;;;;;;;;;1.00;1.00;;;;;;;;5060831;28;8828;-73
2021/05/13 13:48:38;;;;;;;;;0.00;0.00;;;;;;;;5058644;28;8899;-73
2021/05/13 13:51:05;;;;;;;;;0.00;0.00;;;;;;;;5059960;28;8884;-72
2021/05/13 13:53:33;;;;;;;;;0.40;0.40;;;;;;;;5048452;28;8864;-71
2021/05/13 13:56:01;;;;;;;;;0.60;0.60;;;;;;;;5061385;28;8868;-70
2021/05/13 13:58:30;;;;;;;;;3.60;0.60;;;;;;;;5055396;28;8884;-72
2021/05/13 14:00:58;;;;;;;;;2.00;0.60;;;;;;;;5050644;28;8819;-73
2021/05/13 14:03:25;;;;;;;;;5.00;4.50;;;;;;;;5053492;28;8856;-73
2021/05/13 14:05:52;;;;;;;;;2.00;0.00;;;;;;;;5032393;28;8866;-74
2021/05/13 14:08:19;;;;;;;;;1.40;0.00;;;;;;;;5051818;28;8864;-73
2021/05/13 14:10:50;;;;;;;;;0.00;0.00;;;;;;;;5053189;28;8871;-73
2021/05/13 14:13:18;;;;;;;;;1.00;1.00;;;;;;;;5050372;28;8899;-72
2021/05/13 14:15:45;;;;;;;;;3.50;2.00;;;;;;;;5061185;28;8876;-73
2021/05/13 14:18:12;;;;;;;;;1.00;1.00;;;;;;;;5051684;28;9535;-74
2021/05/13 14:20:40;;;;;;;;;5.00;5.00;;;;;;;;5060842;28;9684;-74
2021/05/13 14:23:07;;;;;;;;;2.00;0.75;;;;;;;;5058754;28;8864;-75
2021/05/13 14:25:34;;;;;;;;;0.50;0.50;;;;;;;;5069575;28;8856;-76
2021/05/13 14:28:02;;;;;;;;;0.00;0.00;;;;;;;;5059016;28;8880;-76
2021/05/13 14:30:29;;;;;;;;;1.00;1.00;;;;;;;;5055346;28;8807;-78
2021/05/13 14:32:56;;;;;;;;;0.00;0.00;;;;;;;;5055364;28;9001;-75
2021/05/13 14:35:24;;;;;;;;;0.00;0.00;;;;;;;;5054996;28;8856;-76
2021/05/13 14:37:52;;;;;;;;;6.00;3.75;;;;;;;;5057321;28;8937;-78
2021/05/13 14:40:19;;;;;;;;;1.00;1.00;;;;;;;;5059716;28;8987;-78
2021/05/13 14:42:46;;;;;;;;;2.25;2.25;;;;;;;;5060839;28;8878;-75
2021/05/13 14:45:16;;;;;;;;;1.75;1.75;;;;;;;;5051452;28;9010;-73
2021/05/13 14:47:45;;;;;;;;;2.00;1.00;;;;;;;;5048883;28;8860;-74
2021/05/13 14:50:13;;;;;;;;;0.80;0.00;;;;;;;;5059582;28;8928;-72
2021/05/13 14:52:40;;;;;;;;;1.60;1.60;;;;;;;;5060835;28;8892;-72
2021/05/13 14:55:09;;;;;;;;;0.40;0.40;;;;;;;;5047746;28;8877;-72
2021/05/13 14:57:43;;;;;;;;;3.50;2.00;;;;;;;;5060106;28;9044;-73
2021/05/13 15:00:11;;;;;;;;;0.75;0.75;;;;;;;;5063567;28;8864;-72
2021/05/13 15:02:40;;;;;;;;;1.00;1.00;;;;;;;;5059806;28;8882;-73
2021/05/13 15:05:07;;;;;;;;;0.75;0.75;;;;;;;;5034513;28;8882;-72